sensor_id;sensor_type;location;lat;lon;timestamp;temperature;humidity
21459;DHT22;10891;49.350;19.386;2023-02-11T00:00:59;-11.90;99.90
21459;DHT22;10891;49.350;19.386;2023-02-11T00:03:26;-11.80;99.90
21459;DHT22;10891;49.350;19.386;2023-02-11T00:05:57;-12.00;99.90
21459;DHT22;10891;49.350;19.386;2023-02-11T00:08:26;-12.10;99.90
21459;DHT22;10891;49.350;19.386;2023-02-11T00:10:53;-12.10;99.90
21459;DHT22;10891;49.350;19.386;2023-02-11T00:13:20;-11.90;99.90
21459;DHT22;10891;49.350;19.386;2023-02-11T00:15:47;-11.80;99.90
21459;DHT22;10891;49.350;19.386;2023-02-11T00:18:14;-11.80;99.90
21459;DHT22;10891;49.350;19.386;2023-02-11T00:20:42;-11.70;99.90
21459;DHT22;10891;49.350;19.386;2023-02-11T00:23:09;-11.60;99.90
21459;DHT22;10891;49.350;19.386;2023-02-11T00:25:39;-11.50;99.90
21459;DHT22;10891;49.350;19.386;2023-02-11T00:28:06;-11.40;99.90
21459;DHT22;10891;49.350;19.386;2023-02-11T00:30:33;-11.60;99.90
21459;DHT22;10891;49.350;19.386;2023-02-11T00:33:00;-11.60;99.90
21459;DHT22;10891;49.350;19.386;2023-02-11T00:35:28;-11.70;99.90
21459;DHT22;10891;49.350;19.386;2023-02-11T00:37:55;-11.70;99.90
21459;DHT22;10891;49.350;19.386;2023-02-11T00:40:22;-11.70;99.90
21459;DHT22;10891;49.350;19.386;2023-02-11T00:42:50;-11.50;99.90
21459;DHT22;10891;49.350;19.386;2023-02-11T00:45:17;-11.40;99.90
21459;DHT22;10891;49.350;19.386;2023-02-11T00:47:45;-11.30;99.90
21459;DHT22;10891;49.350;19.386;2023-02-11T00:50:12;-11.30;99.90
21459;DHT22;10891;49.350;19.386;2023-02-11T00:52:39;-11.30;99.90
21459;DHT22;10891;49.350;19.386;2023-02-11T00:55:07;-11.30;99.90
21459;DHT22;10891;49.350;19.386;2023-02-11T00:57:34;-11.20;99.90
21459;DHT22;10891;49.350;19.386;2023-02-11T01:00:03;-11.40;99.90
21459;DHT22;10891;49.350;19.386;2023-02-11T01:02:30;-11.50;99.90
21459;DHT22;10891;49.350;19.386;2023-02-11T01:04:56;-11.60;99.90
21459;DHT22;10891;49.350;19.386;2023-02-11T01:07:24;-11.40;99.90
21459;DHT22;10891;49.350;19.386;2023-02-11T01:09:51;-11.30;99.90
21459;DHT22;10891;49.350;19.386;2023-02-11T01:12:18;-11.30;99.90
21459;DHT22;10891;49.350;19.386;2023-02-11T01:14:45;-11.20;99.90
21459;DHT22;10891;49.350;19.386;2023-02-11T01:17:13;-11.00;99.90
21459;DHT22;10891;49.350;19.386;2023-02-11T01:19:40;-10.80;99.90
21459;DHT22;10891;49.350;19.386;2023-02-11T01:22:07;-10.60;99.90
21459;DHT22;10891;49.350;19.386;2023-02-11T01:24:34;-10.50;99.90
21459;DHT22;10891;49.350;19.386;2023-02-11T01:27:01;-10.30;99.90
21459;DHT22;10891;49.350;19.386;2023-02-11T01:29:28;-10.20;99.90
21459;DHT22;10891;49.350;19.386;2023-02-11T01:31:55;-10.10;99.90
21459;DHT22;10891;49.350;19.386;2023-02-11T01:34:23;-10.10;99.90
21459;DHT22;10891;49.350;19.386;2023-02-11T01:36:50;-9.90;99.90
21459;DHT22;10891;49.350;19.386;2023-02-11T01:39:21;-9.90;99.90
21459;DHT22;10891;49.350;19.386;2023-02-11T01:41:48;-9.80;99.90
21459;DHT22;10891;49.350;19.386;2023-02-11T01:44:24;-9.70;99.90
21459;DHT22;10891;49.350;19.386;2023-02-11T01:46:51;-9.70;99.90
21459;DHT22;10891;49.350;19.386;2023-02-11T01:49:24;-9.70;99.90
21459;DHT22;10891;49.350;19.386;2023-02-11T01:51:55;-9.90;99.90
21459;DHT22;10891;49.350;19.386;2023-02-11T01:54:26;-10.00;99.90
21459;DHT22;10891;49.350;19.386;2023-02-11T01:57:15;-9.90;99.90
21459;DHT22;10891;49.350;19.386;2023-02-11T01:59:59;-9.90;99.90
21459;DHT22;10891;49.350;19.386;2023-02-11T02:02:32;-9.80;99.90
21459;DHT22;10891;49.350;19.386;2023-02-11T02:05:06;-9.80;99.90
21459;DHT22;10891;49.350;19.386;2023-02-11T02:07:38;-9.90;99.90
21459;DHT22;10891;49.350;19.386;2023-02-11T02:10:12;-9.90;99.90
21459;DHT22;10891;49.350;19.386;2023-02-11T02:12:40;-9.90;99.90
21459;DHT22;10891;49.350;19.386;2023-02-11T02:15:25;-9.70;99.90
21459;DHT22;10891;49.350;19.386;2023-02-11T02:18:08;-9.50;99.90
21459;DHT22;10891;49.350;19.386;2023-02-11T02:21:11;-9.20;99.90
21459;DHT22;10891;49.350;19.386;2023-02-11T02:24:02;-8.60;99.90
21459;DHT22;10891;49.350;19.386;2023-02-11T02:26:53;-8.00;99.90
21459;DHT22;10891;49.350;19.386;2023-02-11T02:32:46;-7.40;99.90
21459;DHT22;10891;49.350;19.386;2023-02-11T02:35:23;-7.00;99.90
21459;DHT22;10891;49.350;19.386;2023-02-11T02:37:55;-6.70;99.90
21459;DHT22;10891;49.350;19.386;2023-02-11T02:40:27;-6.50;99.90
21459;DHT22;10891;49.350;19.386;2023-02-11T02:42:55;-6.30;99.90
21459;DHT22;10891;49.350;19.386;2023-02-11T02:45:24;-6.00;99.90
21459;DHT22;10891;49.350;19.386;2023-02-11T02:47:52;-5.90;99.90
21459;DHT22;10891;49.350;19.386;2023-02-11T02:50:23;-5.90;99.90
21459;DHT22;10891;49.350;19.386;2023-02-11T02:53:04;-5.90;99.90
21459;DHT22;10891;49.350;19.386;2023-02-11T02:55:43;-5.90;99.90
21459;DHT22;10891;49.350;19.386;2023-02-11T02:58:30;-5.90;99.90
21459;DHT22;10891;49.350;19.386;2023-02-11T03:01:07;-5.90;99.90
21459;DHT22;10891;49.350;19.386;2023-02-11T03:03:41;-6.00;99.90
21459;DHT22;10891;49.350;19.386;2023-02-11T03:06:14;-6.10;99.90
21459;DHT22;10891;49.350;19.386;2023-02-11T03:08:45;-6.10;99.90
21459;DHT22;10891;49.350;19.386;2023-02-11T03:11:16;-6.20;99.90
21459;DHT22;10891;49.350;19.386;2023-02-11T03:13:45;-6.20;99.90
21459;DHT22;10891;49.350;19.386;2023-02-11T03:16:14;-6.30;99.90
21459;DHT22;10891;49.350;19.386;2023-02-11T03:18:49;-6.40;99.90
21459;DHT22;10891;49.350;19.386;2023-02-11T03:21:17;-6.40;99.90
21459;DHT22;10891;49.350;19.386;2023-02-11T03:23:50;-6.50;99.90
21459;DHT22;10891;49.350;19.386;2023-02-11T03:26:23;-6.50;99.90
21459;DHT22;10891;49.350;19.386;2023-02-11T03:28:54;-6.60;99.90
21459;DHT22;10891;49.350;19.386;2023-02-11T03:31:29;-6.60;99.90
21459;DHT22;10891;49.350;19.386;2023-02-11T03:34:05;-6.60;99.90
21459;DHT22;10891;49.350;19.386;2023-02-11T03:36:38;-6.50;99.90
21459;DHT22;10891;49.350;19.386;2023-02-11T03:39:11;-6.30;99.90
21459;DHT22;10891;49.350;19.386;2023-02-11T03:41:40;-6.20;99.90
21459;DHT22;10891;49.350;19.386;2023-02-11T03:44:09;-6.20;99.90
21459;DHT22;10891;49.350;19.386;2023-02-11T03:46:41;-6.00;99.90
21459;DHT22;10891;49.350;19.386;2023-02-11T03:49:12;-6.00;99.90
21459;DHT22;10891;49.350;19.386;2023-02-11T03:51:40;-5.90;99.90
21459;DHT22;10891;49.350;19.386;2023-02-11T03:54:12;-5.80;99.90
21459;DHT22;10891;49.350;19.386;2023-02-11T03:56:44;-5.80;99.90
21459;DHT22;10891;49.350;19.386;2023-02-11T03:59:14;-5.70;99.90
21459;DHT22;10891;49.350;19.386;2023-02-11T04:01:41;-5.60;99.90
21459;DHT22;10891;49.350;19.386;2023-02-11T04:04:08;-5.50;99.90
21459;DHT22;10891;49.350;19.386;2023-02-11T04:06:36;-5.30;99.90
21459;DHT22;10891;49.350;19.386;2023-02-11T04:09:03;-5.20;99.90
21459;DHT22;10891;49.350;19.386;2023-02-11T04:11:30;-5.10;99.90
21459;DHT22;10891;49.350;19.386;2023-02-11T04:13:57;-5.00;99.90
21459;DHT22;10891;49.350;19.386;2023-02-11T04:16:24;-5.00;99.90
21459;DHT22;10891;49.350;19.386;2023-02-11T04:18:51;-4.90;99.90
21459;DHT22;10891;49.350;19.386;2023-02-11T04:21:18;-4.80;99.90
21459;DHT22;10891;49.350;19.386;2023-02-11T04:23:46;-4.70;99.90
21459;DHT22;10891;49.350;19.386;2023-02-11T04:26:13;-4.70;99.90
21459;DHT22;10891;49.350;19.386;2023-02-11T04:28:39;-4.70;99.90
21459;DHT22;10891;49.350;19.386;2023-02-11T04:31:06;-4.70;99.90
21459;DHT22;10891;49.350;19.386;2023-02-11T04:33:35;-4.70;99.90
21459;DHT22;10891;49.350;19.386;2023-02-11T04:36:02;-4.80;99.90
21459;DHT22;10891;49.350;19.386;2023-02-11T04:38:29;-4.80;99.90
21459;DHT22;10891;49.350;19.386;2023-02-11T04:40:58;-4.70;99.90
21459;DHT22;10891;49.350;19.386;2023-02-11T04:43:25;-4.70;99.90
21459;DHT22;10891;49.350;19.386;2023-02-11T04:45:56;-4.70;99.90
21459;DHT22;10891;49.350;19.386;2023-02-11T04:48:23;-4.80;99.90
21459;DHT22;10891;49.350;19.386;2023-02-11T04:50:50;-4.80;99.90
21459;DHT22;10891;49.350;19.386;2023-02-11T04:53:17;-4.90;99.90
21459;DHT22;10891;49.350;19.386;2023-02-11T04:55:44;-4.90;99.90
21459;DHT22;10891;49.350;19.386;2023-02-11T04:58:12;-4.80;99.90
21459;DHT22;10891;49.350;19.386;2023-02-11T05:00:39;-4.70;99.90
21459;DHT22;10891;49.350;19.386;2023-02-11T05:03:05;-4.80;99.90
21459;DHT22;10891;49.350;19.386;2023-02-11T05:05:32;-4.70;99.90
21459;DHT22;10891;49.350;19.386;2023-02-11T05:07:59;-4.70;99.90
21459;DHT22;10891;49.350;19.386;2023-02-11T05:10:26;-4.70;99.90
21459;DHT22;10891;49.350;19.386;2023-02-11T05:12:53;-4.70;99.90
21459;DHT22;10891;49.350;19.386;2023-02-11T05:15:21;-4.70;99.90
21459;DHT22;10891;49.350;19.386;2023-02-11T05:17:48;-4.60;99.90
21459;DHT22;10891;49.350;19.386;2023-02-11T05:20:15;-4.50;99.90
21459;DHT22;10891;49.350;19.386;2023-02-11T05:22:42;-4.50;99.90
21459;DHT22;10891;49.350;19.386;2023-02-11T05:25:09;-4.50;99.90
21459;DHT22;10891;49.350;19.386;2023-02-11T05:27:36;-4.40;99.90
21459;DHT22;10891;49.350;19.386;2023-02-11T05:30:04;-4.50;99.90
21459;DHT22;10891;49.350;19.386;2023-02-11T05:32:32;-4.50;99.90
21459;DHT22;10891;49.350;19.386;2023-02-11T05:34:59;-4.50;99.90
21459;DHT22;10891;49.350;19.386;2023-02-11T05:37:26;-4.50;99.90
21459;DHT22;10891;49.350;19.386;2023-02-11T05:39:53;-4.60;99.90
21459;DHT22;10891;49.350;19.386;2023-02-11T05:42:19;-4.70;99.90
21459;DHT22;10891;49.350;19.386;2023-02-11T05:44:46;-4.80;99.90
21459;DHT22;10891;49.350;19.386;2023-02-11T05:47:13;-4.80;99.90
21459;DHT22;10891;49.350;19.386;2023-02-11T05:49:41;-4.90;99.90
21459;DHT22;10891;49.350;19.386;2023-02-11T05:52:08;-4.90;99.90
21459;DHT22;10891;49.350;19.386;2023-02-11T05:54:35;-5.00;99.90
21459;DHT22;10891;49.350;19.386;2023-02-11T05:57:02;-5.00;99.90
21459;DHT22;10891;49.350;19.386;2023-02-11T05:59:29;-4.90;99.90
21459;DHT22;10891;49.350;19.386;2023-02-11T06:01:56;-4.80;99.90
21459;DHT22;10891;49.350;19.386;2023-02-11T06:04:23;-4.80;99.90
21459;DHT22;10891;49.350;19.386;2023-02-11T06:06:51;-4.80;99.90
21459;DHT22;10891;49.350;19.386;2023-02-11T06:09:18;-4.80;99.90
21459;DHT22;10891;49.350;19.386;2023-02-11T06:11:45;-4.70;99.90
21459;DHT22;10891;49.350;19.386;2023-02-11T06:14:12;-4.70;99.90
21459;DHT22;10891;49.350;19.386;2023-02-11T06:16:39;-4.70;99.90
21459;DHT22;10891;49.350;19.386;2023-02-11T06:19:05;-4.60;99.90
21459;DHT22;10891;49.350;19.386;2023-02-11T06:21:32;-4.50;99.90
21459;DHT22;10891;49.350;19.386;2023-02-11T06:24:01;-4.30;99.90
21459;DHT22;10891;49.350;19.386;2023-02-11T06:26:28;-4.20;99.90
21459;DHT22;10891;49.350;19.386;2023-02-11T06:28:54;-4.00;99.90
21459;DHT22;10891;49.350;19.386;2023-02-11T06:31:21;-3.90;99.90
21459;DHT22;10891;49.350;19.386;2023-02-11T06:33:48;-3.80;99.90
21459;DHT22;10891;49.350;19.386;2023-02-11T06:36:18;-3.70;99.90
21459;DHT22;10891;49.350;19.386;2023-02-11T06:38:45;-3.50;99.90
21459;DHT22;10891;49.350;19.386;2023-02-11T06:41:15;-3.50;99.90
21459;DHT22;10891;49.350;19.386;2023-02-11T06:43:44;-3.30;99.90
21459;DHT22;10891;49.350;19.386;2023-02-11T06:46:11;-3.20;99.90
21459;DHT22;10891;49.350;19.386;2023-02-11T06:48:38;-3.20;99.90
21459;DHT22;10891;49.350;19.386;2023-02-11T06:51:07;-3.00;99.90
21459;DHT22;10891;49.350;19.386;2023-02-11T06:53:36;-3.00;99.90
21459;DHT22;10891;49.350;19.386;2023-02-11T06:56:04;-3.00;99.90
21459;DHT22;10891;49.350;19.386;2023-02-11T06:58:33;-3.00;99.90
21459;DHT22;10891;49.350;19.386;2023-02-11T07:01:03;-3.00;99.90
21459;DHT22;10891;49.350;19.386;2023-02-11T07:03:31;-2.90;99.90
21459;DHT22;10891;49.350;19.386;2023-02-11T07:05:59;-2.90;99.90
21459;DHT22;10891;49.350;19.386;2023-02-11T07:08:26;-2.70;99.90
21459;DHT22;10891;49.350;19.386;2023-02-11T07:10:53;-2.70;99.90
21459;DHT22;10891;49.350;19.386;2023-02-11T07:13:19;-2.60;99.90
21459;DHT22;10891;49.350;19.386;2023-02-11T07:15:48;-2.50;99.90
21459;DHT22;10891;49.350;19.386;2023-02-11T07:18:14;-2.30;99.90
21459;DHT22;10891;49.350;19.386;2023-02-11T07:20:41;-2.30;99.90
21459;DHT22;10891;49.350;19.386;2023-02-11T07:23:08;-2.10;99.90
21459;DHT22;10891;49.350;19.386;2023-02-11T07:25:35;-2.00;99.90
21459;DHT22;10891;49.350;19.386;2023-02-11T07:28:03;-1.80;99.90
21459;DHT22;10891;49.350;19.386;2023-02-11T07:30:30;-1.60;99.90
21459;DHT22;10891;49.350;19.386;2023-02-11T07:32:58;-1.60;99.90
21459;DHT22;10891;49.350;19.386;2023-02-11T07:35:25;-1.60;99.90
21459;DHT22;10891;49.350;19.386;2023-02-11T07:37:52;-1.50;99.90
21459;DHT22;10891;49.350;19.386;2023-02-11T07:40:18;-1.40;99.90
21459;DHT22;10891;49.350;19.386;2023-02-11T07:42:45;-1.40;99.90
21459;DHT22;10891;49.350;19.386;2023-02-11T07:45:12;-1.20;99.90
21459;DHT22;10891;49.350;19.386;2023-02-11T07:47:39;-1.30;99.90
21459;DHT22;10891;49.350;19.386;2023-02-11T07:50:08;-1.20;99.90
21459;DHT22;10891;49.350;19.386;2023-02-11T07:52:35;-1.20;99.90
21459;DHT22;10891;49.350;19.386;2023-02-11T07:55:02;-1.20;99.90
21459;DHT22;10891;49.350;19.386;2023-02-11T07:57:29;-1.20;99.90
21459;DHT22;10891;49.350;19.386;2023-02-11T07:59:56;-1.30;99.90
21459;DHT22;10891;49.350;19.386;2023-02-11T08:02:23;-1.20;99.90
21459;DHT22;10891;49.350;19.386;2023-02-11T08:04:50;-1.20;99.90
21459;DHT22;10891;49.350;19.386;2023-02-11T08:07:18;-1.20;99.90
21459;DHT22;10891;49.350;19.386;2023-02-11T08:09:45;-1.10;99.90
21459;DHT22;10891;49.350;19.386;2023-02-11T08:12:12;-1.20;99.90
21459;DHT22;10891;49.350;19.386;2023-02-11T08:14:39;-1.20;99.90
21459;DHT22;10891;49.350;19.386;2023-02-11T08:17:06;-1.20;99.90
21459;DHT22;10891;49.350;19.386;2023-02-11T08:19:33;-1.20;99.90
21459;DHT22;10891;49.350;19.386;2023-02-11T08:22:00;-1.20;99.90
21459;DHT22;10891;49.350;19.386;2023-02-11T08:24:28;-1.20;99.90
21459;DHT22;10891;49.350;19.386;2023-02-11T08:26:55;-1.20;99.90
21459;DHT22;10891;49.350;19.386;2023-02-11T08:29:22;-1.10;99.90
21459;DHT22;10891;49.350;19.386;2023-02-11T08:31:49;-1.00;99.90
21459;DHT22;10891;49.350;19.386;2023-02-11T08:34:19;-0.80;99.90
21459;DHT22;10891;49.350;19.386;2023-02-11T08:36:47;-0.80;99.90
21459;DHT22;10891;49.350;19.386;2023-02-11T08:39:16;-0.70;99.90
21459;DHT22;10891;49.350;19.386;2023-02-11T08:41:45;-0.70;99.90
21459;DHT22;10891;49.350;19.386;2023-02-11T08:44:13;-0.60;99.90
21459;DHT22;10891;49.350;19.386;2023-02-11T08:46:40;-0.50;99.90
21459;DHT22;10891;49.350;19.386;2023-02-11T08:49:07;-0.40;99.90
21459;DHT22;10891;49.350;19.386;2023-02-11T08:51:34;-0.20;99.90
21459;DHT22;10891;49.350;19.386;2023-02-11T08:54:01;-0.10;99.90
21459;DHT22;10891;49.350;19.386;2023-02-11T08:56:28;-0.10;99.90
21459;DHT22;10891;49.350;19.386;2023-02-11T08:58:58;-0.30;99.90
21459;DHT22;10891;49.350;19.386;2023-02-11T09:01:26;-0.40;99.90
21459;DHT22;10891;49.350;19.386;2023-02-11T09:03:54;-0.40;99.90
21459;DHT22;10891;49.350;19.386;2023-02-11T09:06:23;-0.50;99.90
21459;DHT22;10891;49.350;19.386;2023-02-11T09:08:51;-0.60;99.90
21459;DHT22;10891;49.350;19.386;2023-02-11T09:11:21;-0.50;99.90
21459;DHT22;10891;49.350;19.386;2023-02-11T09:13:48;-0.50;99.90
21459;DHT22;10891;49.350;19.386;2023-02-11T09:16:18;-0.60;99.90
21459;DHT22;10891;49.350;19.386;2023-02-11T09:18:46;-0.50;99.90
21459;DHT22;10891;49.350;19.386;2023-02-11T09:21:14;-0.40;99.90
21459;DHT22;10891;49.350;19.386;2023-02-11T09:23:41;-0.20;99.90
21459;DHT22;10891;49.350;19.386;2023-02-11T09:26:13;-0.10;99.90
21459;DHT22;10891;49.350;19.386;2023-02-11T09:28:40;0.00;99.90
21459;DHT22;10891;49.350;19.386;2023-02-11T09:31:08;0.00;99.90
21459;DHT22;10891;49.350;19.386;2023-02-11T09:33:39;0.10;99.90
21459;DHT22;10891;49.350;19.386;2023-02-11T09:36:13;0.10;99.90
21459;DHT22;10891;49.350;19.386;2023-02-11T09:38:40;0.20;99.90
21459;DHT22;10891;49.350;19.386;2023-02-11T09:41:32;0.30;99.90
21459;DHT22;10891;49.350;19.386;2023-02-11T09:44:04;0.40;99.90
21459;DHT22;10891;49.350;19.386;2023-02-11T09:46:33;0.60;99.90
21459;DHT22;10891;49.350;19.386;2023-02-11T09:49:03;1.00;99.90
21459;DHT22;10891;49.350;19.386;2023-02-11T09:51:37;1.70;99.90
21459;DHT22;10891;49.350;19.386;2023-02-11T09:54:11;2.20;99.90
21459;DHT22;10891;49.350;19.386;2023-02-11T09:56:39;2.80;99.90
21459;DHT22;10891;49.350;19.386;2023-02-11T09:59:09;2.70;99.90
21459;DHT22;10891;49.350;19.386;2023-02-11T10:01:38;2.80;99.90
21459;DHT22;10891;49.350;19.386;2023-02-11T10:04:13;3.10;99.90
21459;DHT22;10891;49.350;19.386;2023-02-11T10:06:49;3.30;99.90
21459;DHT22;10891;49.350;19.386;2023-02-11T10:09:44;3.40;99.90
21459;DHT22;10891;49.350;19.386;2023-02-11T10:12:25;3.40;99.90
21459;DHT22;10891;49.350;19.386;2023-02-11T10:15:14;3.20;99.90
21459;DHT22;10891;49.350;19.386;2023-02-11T10:17:52;3.20;99.90
21459;DHT22;10891;49.350;19.386;2023-02-11T10:20:30;3.20;99.90
21459;DHT22;10891;49.350;19.386;2023-02-11T10:23:00;3.30;99.90
21459;DHT22;10891;49.350;19.386;2023-02-11T10:25:35;3.00;99.90
21459;DHT22;10891;49.350;19.386;2023-02-11T10:28:12;2.80;99.90
21459;DHT22;10891;49.350;19.386;2023-02-11T10:30:42;2.90;99.90
21459;DHT22;10891;49.350;19.386;2023-02-11T10:33:16;3.00;99.90
21459;DHT22;10891;49.350;19.386;2023-02-11T10:35:47;3.10;99.90
21459;DHT22;10891;49.350;19.386;2023-02-11T10:38:14;3.30;99.90
21459;DHT22;10891;49.350;19.386;2023-02-11T10:40:41;3.60;99.90
21459;DHT22;10891;49.350;19.386;2023-02-11T10:43:11;3.50;99.90
21459;DHT22;10891;49.350;19.386;2023-02-11T10:45:42;3.70;99.90
21459;DHT22;10891;49.350;19.386;2023-02-11T10:48:41;4.00;99.90
21459;DHT22;10891;49.350;19.386;2023-02-11T10:51:19;4.40;99.90
21459;DHT22;10891;49.350;19.386;2023-02-11T10:53:47;4.50;99.90
21459;DHT22;10891;49.350;19.386;2023-02-11T10:56:21;4.60;99.90
21459;DHT22;10891;49.350;19.386;2023-02-11T10:58:56;4.60;99.90
21459;DHT22;10891;49.350;19.386;2023-02-11T11:01:37;4.70;99.90
21459;DHT22;10891;49.350;19.386;2023-02-11T11:04:05;4.70;99.90
21459;DHT22;10891;49.350;19.386;2023-02-11T11:06:34;4.50;99.90
21459;DHT22;10891;49.350;19.386;2023-02-11T11:09:01;4.30;99.90
21459;DHT22;10891;49.350;19.386;2023-02-11T11:11:29;4.00;99.90
21459;DHT22;10891;49.350;19.386;2023-02-11T11:13:57;3.90;99.90
21459;DHT22;10891;49.350;19.386;2023-02-11T11:16:25;3.50;99.90
21459;DHT22;10891;49.350;19.386;2023-02-11T11:19:18;3.10;99.90
21459;DHT22;10891;49.350;19.386;2023-02-11T11:21:47;2.80;99.90
21459;DHT22;10891;49.350;19.386;2023-02-11T11:24:17;2.60;99.90
21459;DHT22;10891;49.350;19.386;2023-02-11T11:26:47;2.40;99.90
21459;DHT22;10891;49.350;19.386;2023-02-11T11:29:17;2.30;99.90
21459;DHT22;10891;49.350;19.386;2023-02-11T11:31:47;2.20;99.90
21459;DHT22;10891;49.350;19.386;2023-02-11T11:34:22;2.30;99.90
21459;DHT22;10891;49.350;19.386;2023-02-11T11:36:49;2.20;99.90
21459;DHT22;10891;49.350;19.386;2023-02-11T11:39:19;2.20;99.90
21459;DHT22;10891;49.350;19.386;2023-02-11T11:41:53;2.50;99.90
21459;DHT22;10891;49.350;19.386;2023-02-11T11:44:30;2.70;99.90
21459;DHT22;10891;49.350;19.386;2023-02-11T11:50:24;2.70;99.90
21459;DHT22;10891;49.350;19.386;2023-02-11T11:52:56;2.80;99.90
21459;DHT22;10891;49.350;19.386;2023-02-11T11:55:27;3.00;99.90
21459;DHT22;10891;49.350;19.386;2023-02-11T11:57:57;2.90;99.90
21459;DHT22;10891;49.350;19.386;2023-02-11T12:00:30;3.00;99.90
21459;DHT22;10891;49.350;19.386;2023-02-11T12:03:37;3.20;99.90
21459;DHT22;10891;49.350;19.386;2023-02-11T12:06:20;3.10;99.90
21459;DHT22;10891;49.350;19.386;2023-02-11T12:08:58;3.20;99.90
21459;DHT22;10891;49.350;19.386;2023-02-11T12:11:33;2.90;99.90
21459;DHT22;10891;49.350;19.386;2023-02-11T12:14:11;2.90;99.90
21459;DHT22;10891;49.350;19.386;2023-02-11T12:16:52;2.80;99.90
21459;DHT22;10891;49.350;19.386;2023-02-11T12:19:42;2.90;99.90
21459;DHT22;10891;49.350;19.386;2023-02-11T12:22:24;2.80;99.90
21459;DHT22;10891;49.350;19.386;2023-02-11T12:25:03;2.70;99.90
21459;DHT22;10891;49.350;19.386;2023-02-11T12:27:44;2.70;99.90
21459;DHT22;10891;49.350;19.386;2023-02-11T12:30:19;2.80;99.90
21459;DHT22;10891;49.350;19.386;2023-02-11T12:32:52;2.80;99.90
21459;DHT22;10891;49.350;19.386;2023-02-11T12:35:30;2.80;99.90
21459;DHT22;10891;49.350;19.386;2023-02-11T12:38:14;2.80;99.90
21459;DHT22;10891;49.350;19.386;2023-02-11T12:40:49;2.80;99.90
21459;DHT22;10891;49.350;19.386;2023-02-11T12:43:26;2.60;99.90
21459;DHT22;10891;49.350;19.386;2023-02-11T12:46:18;2.50;99.90
21459;DHT22;10891;49.350;19.386;2023-02-11T12:49:11;2.40;99.90
21459;DHT22;10891;49.350;19.386;2023-02-11T12:51:51;2.30;99.90
21459;DHT22;10891;49.350;19.386;2023-02-11T12:54:28;2.40;99.90
21459;DHT22;10891;49.350;19.386;2023-02-11T12:56:59;2.50;99.90
21459;DHT22;10891;49.350;19.386;2023-02-11T12:59:37;2.50;99.90
21459;DHT22;10891;49.350;19.386;2023-02-11T13:02:17;2.70;99.90
21459;DHT22;10891;49.350;19.386;2023-02-11T13:04:50;3.00;99.90
21459;DHT22;10891;49.350;19.386;2023-02-11T13:07:23;3.20;99.90
21459;DHT22;10891;49.350;19.386;2023-02-11T13:09:57;3.40;99.90
21459;DHT22;10891;49.350;19.386;2023-02-11T13:12:29;3.50;99.90
21459;DHT22;10891;49.350;19.386;2023-02-11T13:15:14;3.80;99.90
21459;DHT22;10891;49.350;19.386;2023-02-11T13:17:50;4.20;99.90
21459;DHT22;10891;49.350;19.386;2023-02-11T13:20:32;4.30;99.90
21459;DHT22;10891;49.350;19.386;2023-02-11T13:23:09;3.90;99.90
21459;DHT22;10891;49.350;19.386;2023-02-11T13:25:43;3.60;99.90
21459;DHT22;10891;49.350;19.386;2023-02-11T13:28:19;3.30;99.90
21459;DHT22;10891;49.350;19.386;2023-02-11T13:30:49;3.10;99.90
21459;DHT22;10891;49.350;19.386;2023-02-11T13:33:37;2.90;99.90
21459;DHT22;10891;49.350;19.386;2023-02-11T13:36:19;3.10;99.90
21459;DHT22;10891;49.350;19.386;2023-02-11T13:39:01;3.00;99.90
21459;DHT22;10891;49.350;19.386;2023-02-11T13:41:32;3.10;99.90
21459;DHT22;10891;49.350;19.386;2023-02-11T13:44:03;3.20;99.90
21459;DHT22;10891;49.350;19.386;2023-02-11T13:46:47;3.00;99.90
21459;DHT22;10891;49.350;19.386;2023-02-11T13:49:20;2.80;99.90
21459;DHT22;10891;49.350;19.386;2023-02-11T13:51:48;2.50;99.90
21459;DHT22;10891;49.350;19.386;2023-02-11T13:54:23;2.60;99.90
21459;DHT22;10891;49.350;19.386;2023-02-11T13:57:26;2.40;99.90
21459;DHT22;10891;49.350;19.386;2023-02-11T13:59:54;2.20;99.90
21459;DHT22;10891;49.350;19.386;2023-02-11T14:02:24;2.10;99.90
21459;DHT22;10891;49.350;19.386;2023-02-11T14:05:22;1.90;99.90
21459;DHT22;10891;49.350;19.386;2023-02-11T14:08:18;1.80;99.90
21459;DHT22;10891;49.350;19.386;2023-02-11T14:11:04;1.60;99.90
21459;DHT22;10891;49.350;19.386;2023-02-11T14:14:10;1.60;99.90
21459;DHT22;10891;49.350;19.386;2023-02-11T14:19:47;1.40;99.90
21459;DHT22;10891;49.350;19.386;2023-02-11T14:22:17;1.20;99.90
21459;DHT22;10891;49.350;19.386;2023-02-11T14:24:48;1.20;99.90
21459;DHT22;10891;49.350;19.386;2023-02-11T14:36:39;1.30;99.90
21459;DHT22;10891;49.350;19.386;2023-02-11T14:39:19;1.40;99.90
21459;DHT22;10891;49.350;19.386;2023-02-11T14:41:48;1.30;99.90
21459;DHT22;10891;49.350;19.386;2023-02-11T14:44:18;1.20;99.90
21459;DHT22;10891;49.350;19.386;2023-02-11T14:46:47;1.20;99.90
21459;DHT22;10891;49.350;19.386;2023-02-11T14:49:22;1.20;99.90
21459;DHT22;10891;49.350;19.386;2023-02-11T14:51:54;1.00;99.90
21459;DHT22;10891;49.350;19.386;2023-02-11T14:54:25;0.90;99.90
21459;DHT22;10891;49.350;19.386;2023-02-11T14:57:07;0.90;99.90
21459;DHT22;10891;49.350;19.386;2023-02-11T14:59:34;0.90;99.90
21459;DHT22;10891;49.350;19.386;2023-02-11T15:02:01;0.90;99.90
21459;DHT22;10891;49.350;19.386;2023-02-11T15:04:33;0.90;99.90
21459;DHT22;10891;49.350;19.386;2023-02-11T15:07:06;0.90;99.90
21459;DHT22;10891;49.350;19.386;2023-02-11T15:09:40;0.90;99.90
21459;DHT22;10891;49.350;19.386;2023-02-11T15:12:14;0.90;99.90
21459;DHT22;10891;49.350;19.386;2023-02-11T15:14:46;0.90;99.90
21459;DHT22;10891;49.350;19.386;2023-02-11T15:17:17;1.00;99.90
21459;DHT22;10891;49.350;19.386;2023-02-11T15:19:47;1.10;99.90
21459;DHT22;10891;49.350;19.386;2023-02-11T15:22:22;1.20;99.90
21459;DHT22;10891;49.350;19.386;2023-02-11T15:25:01;1.10;99.90
21459;DHT22;10891;49.350;19.386;2023-02-11T15:27:37;1.10;99.90
21459;DHT22;10891;49.350;19.386;2023-02-11T15:30:23;1.20;99.90
21459;DHT22;10891;49.350;19.386;2023-02-11T15:32:52;1.20;99.90
21459;DHT22;10891;49.350;19.386;2023-02-11T15:35:23;1.20;99.90
21459;DHT22;10891;49.350;19.386;2023-02-11T15:37:55;1.20;99.90
21459;DHT22;10891;49.350;19.386;2023-02-11T15:40:23;0.90;99.90
21459;DHT22;10891;49.350;19.386;2023-02-11T15:42:54;0.90;99.90
21459;DHT22;10891;49.350;19.386;2023-02-11T15:45:23;0.90;99.90
21459;DHT22;10891;49.350;19.386;2023-02-11T15:47:56;0.90;99.90
21459;DHT22;10891;49.350;19.386;2023-02-11T15:50:26;0.90;99.90
21459;DHT22;10891;49.350;19.386;2023-02-11T15:52:57;0.90;99.90
21459;DHT22;10891;49.350;19.386;2023-02-11T15:55:26;0.90;99.90
21459;DHT22;10891;49.350;19.386;2023-02-11T15:57:56;1.00;99.90
21459;DHT22;10891;49.350;19.386;2023-02-11T16:00:27;1.00;99.90
21459;DHT22;10891;49.350;19.386;2023-02-11T16:02:57;1.00;99.90
21459;DHT22;10891;49.350;19.386;2023-02-11T16:05:27;1.00;99.90